Bookmark and Share
Track history (hours):
 

Tatiana

Last reported at 2013-May-30 10:29 UTC. Time now 2014-Apr-23 07:06 UTC.
Position N 38°50' E 001°27'.
Warning: this ship's position is months out of date.

Length 45 m; draft 2.2 m.

Type: Pleasure craft. MMSI: 256188000.

NotesDate/timePositionNaut miles runAvg speedWind from/ knotsBaromVisibWave heightAir tempDewpointWater temp
2013-May-30 10:29N 38°50' E 001°27'  
2013-May-26 21:33N 42°50' E 004°42'1313.4
2013-May-26 20:33N 43°01' E 004°52'1413.8
2013-May-26 19:33N 43°12' E 005°04'1313.2
2013-May-26 18:33N 43°08' E 005°22'1212.1
2013-May-26 17:33N 43°03' E 005°37'8 8.3
2013-May-26 16:33N 43°01' E 005°48'8 8.2
2013-May-26 15:33N 43°02' E 005°59'1010.0
2013-May-26 14:33N 43°02' E 006°13'1413.5
2013-May-26 13:33N 43°06' E 006°30'1512.7
2013-May-26 12:25N 43°15' E 006°46'1213.7
2013-May-26 11:33N 43°25' E 006°55'9 9.0
2013-May-26 10:33N 43°33' E 007°01'0 0.0
2013-May-25 13:21N 43°33' E 007°01'0 0.0
2013-May-25 12:26N 43°33' E 007°01'0 0.0
2013-May-25 11:27N 43°33' E 007°01'0 0.0
2013-May-25 09:12N 43°33' E 007°01'0 0.0
2013-May-25 07:22N 43°33' E 007°01'0 0.0
2013-May-25 06:33N 43°33' E 007°01'0 0.0
2013-May-25 04:27N 43°33' E 007°01'0 0.0
2013-May-25 03:25N 43°33' E 007°01'0 0.0
2013-May-25 01:23N 43°33' E 007°01'0 0.0
2013-May-25 00:28N 43°33' E 007°01'0 0.0
2013-May-24 19:33N 43°33' E 007°01'0 0.0
2013-May-24 18:27N 43°33' E 007°01'0 0.1
2013-May-24 14:32N 43°32' E 007°01'4 3.6
2013-May-24 13:33N 43°31' E 006°57'0 0.3
2013-May-24 12:33N 43°31' E 006°57'0 0.1
2013-May-24 11:33N 43°31' E 006°57'0 0.0
2013-May-24 10:33N 43°31' E 006°57'0 0.4
2013-May-24 09:33N 43°31' E 006°57'3 3.3
2013-May-24 08:33N 43°33' E 007°01'0 0.0
2013-May-24 07:18N 43°33' E 007°01'0 0.0
2013-May-24 06:32N 43°33' E 007°01'0 0.0
2013-May-24 04:28N 43°33' E 007°01'0 0.0
2013-May-24 03:34N 43°33' E 007°01'0 0.0
2013-May-24 02:33N 43°33' E 007°01'0 0.0
2013-May-24 01:33N 43°33' E 007°01'0 0.0
2013-May-24 00:33N 43°33' E 007°01'0 0.0
2013-May-23 23:32N 43°33' E 007°01'0 0.0
2013-May-23 22:27N 43°33' E 007°01'0 0.0
2013-May-23 21:23N 43°33' E 007°01'0 0.0
2013-May-23 20:25N 43°33' E 007°01'0 0.0
2013-May-23 19:10N 43°33' E 007°01'0 0.0
2013-May-23 18:30N 43°33' E 007°01'0 0.0
2013-May-23 17:15N 43°33' E 007°01'0 0.0
2013-May-23 16:18N 43°33' E 007°01'0 0.0
2013-May-23 15:11N 43°33' E 007°01'0 0.0
2013-May-23 14:29N 43°33' E 007°01'0 0.0
2013-May-23 13:24N 43°33' E 007°01'0 0.0
2013-May-23 12:24N 43°33' E 007°01'0 0.0
2013-May-23 11:32N 43°33' E 007°01'0 0.0
2013-May-23 10:30N 43°33' E 007°01'0 0.0
2013-May-23 09:33N 43°33' E 007°01'0 0.0
2013-May-23 08:31N 43°33' E 007°01'0 0.0
2013-May-23 07:15N 43°33' E 007°01'0 0.0
2013-May-23 06:08N 43°33' E 007°01'0 0.0
2013-May-22 21:22N 43°33' E 007°01'0 0.0
2013-May-22 20:20N 43°33' E 007°01'0 0.0
2013-May-22 19:09N 43°33' E 007°01'0 0.0
2013-May-22 17:33N 43°33' E 007°01'0 0.0
2013-May-22 16:32N 43°33' E 007°01'0 0.0
2013-May-22 15:21N 43°33' E 007°01'0 0.0
2013-May-22 14:31N 43°33' E 007°01'0 0.0
2013-May-22 13:14N 43°33' E 007°01'0 0.0
2013-May-22 12:32N 43°33' E 007°01'1 0.9
2013-May-22 11:33N 43°32' E 007°01'1 0.9
2013-May-22 10:33N 43°32' E 007°03'0 0.0
2013-May-22 09:33N 43°32' E 007°03'0 0.0
2013-May-22 08:33N 43°32' E 007°03'0 0.0
2013-May-22 07:33N 43°32' E 007°03'0 0.0
2013-May-22 06:33N 43°32' E 007°03'0 0.0
2013-May-22 04:33N 43°32' E 007°03'0 0.0
2013-May-22 03:33N 43°32' E 007°03'0 0.0
2013-May-22 02:33N 43°32' E 007°03'0 0.0
2013-May-22 01:33N 43°32' E 007°03'0 0.0
2013-May-22 00:33N 43°32' E 007°03'0 0.0
2013-May-21 23:33N 43°32' E 007°03'0 0.0
2013-May-21 22:33N 43°32' E 007°03'0 0.0
2013-May-21 21:33N 43°32' E 007°03'0 0.0
2013-May-21 20:33N 43°32' E 007°03'0 0.0
2013-May-21 19:33N 43°32' E 007°03'0 0.0
2013-May-21 18:33N 43°32' E 007°03'0 0.0
2013-May-21 17:33N 43°32' E 007°03'0 0.0
2013-May-21 16:33N 43°32' E 007°03'0 0.0
2013-May-21 15:33N 43°32' E 007°03'0 0.0
2013-May-21 14:34N 43°32' E 007°03'0 0.0
2013-May-21 13:34N 43°32' E 007°03'0 0.0
2013-May-21 12:33N 43°32' E 007°03'1 0.8
2013-May-21 11:33N 43°32' E 007°02'0 0.3
2013-May-21 10:29N 43°32' E 007°01'0 0.0
2013-May-21 09:33N 43°32' E 007°01'0 0.0
2013-May-21 08:31N 43°32' E 007°01'0 0.0
2013-May-21 07:33N 43°32' E 007°01'4 3.9
2013-May-21 06:33N 43°31' E 006°56'0 0.1
2013-May-21 05:34N 43°31' E 006°57'0 0.0
2013-May-21 04:33N 43°31' E 006°57'0 0.0
2013-May-21 03:33N 43°31' E 006°57'0 0.0
2013-May-21 02:33N 43°31' E 006°57'0 0.0
2013-May-21 01:33N 43°31' E 006°57'0 0.0
2013-May-21 00:33N 43°31' E 006°57'0 0.0
2013-May-20 23:33N 43°31' E 006°57'0 0.0
2013-May-20 22:33N 43°31' E 006°57'0 0.0
2013-May-20 21:33N 43°31' E 006°57'0 0.0
2013-May-20 20:33N 43°31' E 006°57'0 0.0
2013-May-20 19:33N 43°31' E 006°57'0 0.0
2013-May-20 18:33N 43°31' E 006°57'0 0.0
2013-May-20 17:33N 43°31' E 006°57'1 1.4
2013-May-20 16:33N 43°30' E 006°58'2116.5
2013-May-20 15:16N 43°16' E 006°36'0 0.1
2013-May-20 14:32N 43°16' E 006°36'1 0.3
2013-May-20 12:18N 43°16' E 006°37'0 0.1
2013-May-20 11:07N 43°16' E 006°37'0 0.1
2013-May-20 10:30N 43°16' E 006°37'  

Dump ship's entire track history

sailing weather and tide predictions

Tatiana — 9HA2824 — position and weather